createdAt,value
2018-05-03T00:01:37.751Z,2.93
2018-05-03T00:04:06.059Z,3.97
2018-05-03T00:06:34.385Z,5.30
2018-05-03T00:09:02.756Z,3.27
2018-05-03T00:11:31.082Z,5.20
2018-05-03T00:13:59.553Z,4.90
2018-05-03T00:16:28.057Z,5.83
2018-05-03T00:18:56.523Z,5.67
2018-05-03T00:21:24.853Z,5.37
2018-05-03T00:23:53.311Z,6.03
2018-05-03T00:26:22.396Z,3.47
2018-05-03T00:28:51.626Z,5.20
2018-05-03T00:31:19.996Z,2.58
2018-05-03T00:33:48.606Z,2.70
2018-05-03T00:36:16.910Z,3.30
2018-05-03T00:38:45.216Z,3.60
2018-05-03T00:41:14.306Z,4.13
2018-05-03T00:43:43.796Z,7.18
2018-05-03T00:46:12.093Z,3.10
2018-05-03T00:48:41.159Z,4.77
2018-05-03T00:51:09.456Z,4.93
2018-05-03T00:53:38.541Z,6.30
2018-05-03T00:56:06.863Z,7.53
2018-05-03T00:58:35.126Z,5.10
2018-05-03T01:01:03.463Z,4.20
2018-05-03T01:03:31.885Z,5.22
2018-05-03T01:06:00.382Z,4.87
2018-05-03T01:08:28.662Z,3.10
2018-05-03T01:10:57.051Z,4.93
2018-05-03T01:13:25.476Z,3.07
2018-05-03T01:15:54.533Z,6.87
2018-05-03T01:18:22.942Z,3.47
2018-05-03T01:20:51.317Z,5.83
2018-05-03T01:23:19.742Z,3.23
2018-05-03T01:25:48.290Z,3.53
2018-05-03T01:28:17.367Z,6.53
2018-05-03T01:30:45.725Z,4.43
2018-05-03T01:33:13.993Z,3.70
2018-05-03T01:36:00.202Z,3.25
2018-05-03T01:38:28.547Z,7.27
2018-05-03T01:40:56.786Z,6.60
2018-05-03T01:43:25.848Z,3.57
2018-05-03T01:45:54.182Z,3.78
2018-05-03T01:48:23.290Z,7.13
2018-05-03T01:50:51.571Z,2.80
2018-05-03T01:53:19.888Z,4.70
2018-05-03T01:55:48.174Z,7.70
2018-05-03T01:58:17.298Z,5.87
2018-05-03T02:00:46.546Z,6.80
2018-05-03T02:03:16.273Z,4.10
2018-05-03T02:05:44.597Z,2.30
2018-05-03T02:08:12.883Z,6.27
2018-05-03T02:10:42.312Z,2.83
2018-05-03T02:13:10.681Z,4.15
2018-05-03T02:15:39.127Z,2.93
2018-05-03T02:18:07.432Z,4.68
2018-05-03T02:20:35.898Z,18.42
2018-05-03T02:23:04.193Z,10.43
2018-05-03T02:25:32.696Z,5.10
2018-05-03T02:28:01.141Z,5.47
2018-05-03T02:30:29.481Z,5.37
2018-05-03T02:32:59.504Z,5.55
2018-05-03T02:35:29.802Z,6.73
2018-05-03T02:37:58.078Z,6.77
2018-05-03T02:40:26.365Z,5.93
2018-05-03T02:42:54.692Z,11.43
2018-05-03T02:45:23.167Z,7.30
2018-05-03T02:47:51.506Z,8.37
2018-05-03T02:50:20.696Z,7.83
2018-05-03T02:52:49.788Z,9.93
2018-05-03T02:55:18.882Z,8.52
2018-05-03T02:58:10.610Z,13.10
2018-05-03T03:04:23.935Z,12.13
2018-05-03T03:10:44.829Z,17.17
2018-05-03T03:16:54.777Z,13.47
2018-05-03T03:19:41.590Z,13.62
2018-05-03T03:22:33.894Z,12.47
2018-05-03T03:28:41.816Z,14.40
2018-05-03T03:31:33.770Z,13.77
2018-05-03T03:34:20.503Z,14.20
2018-05-03T03:40:20.123Z,15.37
2018-05-03T03:45:46.515Z,17.77
2018-05-03T03:48:14.846Z,15.50
2018-05-03T03:50:43.949Z,15.43
2018-05-03T03:53:13.693Z,16.53
2018-05-03T03:55:41.938Z,19.70
2018-05-03T03:58:11.032Z,16.20
2018-05-03T04:00:40.132Z,15.87
2018-05-03T04:03:08.429Z,16.60
2018-05-03T04:05:36.753Z,16.83
2018-05-03T04:08:05.029Z,16.83
2018-05-03T04:10:33.454Z,15.77
2018-05-03T04:13:01.877Z,14.30
2018-05-03T04:15:30.248Z,13.90
2018-05-03T04:18:16.389Z,14.68
2018-05-03T04:21:07.058Z,17.33
2018-05-03T04:24:07.959Z,16.10
2018-05-03T04:26:36.573Z,13.53
2018-05-03T04:29:05.023Z,14.57
2018-05-03T04:31:33.344Z,13.93
2018-05-03T04:34:01.700Z,17.13
2018-05-03T04:36:30.067Z,16.52
2018-05-03T04:38:58.374Z,18.30
2018-05-03T04:41:26.688Z,16.50
2018-05-03T04:43:55.078Z,20.17
2018-05-03T04:46:23.754Z,18.10
2018-05-03T04:48:52.134Z,17.40
2018-05-03T04:51:20.463Z,15.97
2018-05-03T04:53:48.849Z,18.47
2018-05-03T04:56:17.178Z,17.33
2018-05-03T04:58:45.512Z,17.65
2018-05-03T05:01:13.929Z,20.43
2018-05-03T05:03:42.509Z,25.60
2018-05-03T05:06:10.877Z,21.27
2018-05-03T05:08:39.998Z,16.47
2018-05-03T05:11:08.276Z,18.65
2018-05-03T05:13:36.655Z,18.27
2018-05-03T05:16:06.189Z,15.33
2018-05-03T05:18:34.946Z,21.03
2018-05-03T05:21:03.240Z,18.33
2018-05-03T05:23:31.553Z,15.97
2018-05-03T05:26:00.129Z,17.70
2018-05-03T05:28:29.986Z,22.23
2018-05-03T05:30:58.369Z,16.50
2018-05-03T05:33:26.704Z,16.83
2018-05-03T05:35:55.127Z,18.87
2018-05-03T05:38:23.687Z,19.83
2018-05-03T05:40:52.088Z,20.27
2018-05-03T05:43:20.383Z,18.33
2018-05-03T05:45:48.749Z,17.10
2018-05-03T05:48:17.034Z,17.87
2018-05-03T05:50:45.353Z,15.00
2018-05-03T05:53:13.742Z,17.87
2018-05-03T05:55:42.368Z,13.32
2018-05-03T05:58:10.740Z,14.97
2018-05-03T06:00:39.111Z,15.07
2018-05-03T06:03:07.416Z,20.93
2018-05-03T06:05:35.770Z,12.87
2018-05-03T06:08:04.570Z,15.03
2018-05-03T06:10:32.864Z,17.13
2018-05-03T06:13:01.210Z,14.13
2018-05-03T06:15:29.531Z,13.43
2018-05-03T06:17:57.917Z,13.73
2018-05-03T06:20:26.140Z,14.73
2018-05-03T06:22:54.498Z,14.83
2018-05-03T06:25:23.360Z,9.93
2018-05-03T06:27:51.743Z,14.50
2018-05-03T06:30:20.044Z,10.33
2018-05-03T06:32:48.434Z,17.83
2018-05-03T06:35:16.729Z,12.90
2018-05-03T06:37:45.099Z,8.17
2018-05-03T06:40:13.620Z,15.73
2018-05-03T06:42:42.865Z,8.65
2018-05-03T06:45:11.301Z,12.88
2018-05-03T06:47:39.591Z,9.93
2018-05-03T06:50:07.921Z,14.83
2018-05-03T06:52:36.244Z,10.83
2018-05-03T06:55:04.568Z,10.97
2018-05-03T06:57:32.980Z,12.53
2018-05-03T07:00:01.540Z,9.20
2018-05-03T07:04:58.360Z,9.27
2018-05-03T07:07:27.493Z,8.33
2018-05-03T07:09:55.880Z,9.20
2018-05-03T07:12:25.034Z,7.67
2018-05-03T07:14:53.325Z,10.57
2018-05-03T07:17:21.895Z,7.63
2018-05-03T07:19:51.096Z,8.43
2018-05-03T07:22:19.582Z,10.13
2018-05-03T07:24:48.069Z,9.00
2018-05-03T07:27:16.348Z,9.80
2018-05-03T07:29:44.665Z,8.38
2018-05-03T07:32:12.971Z,8.30
2018-05-03T07:34:42.090Z,11.10
2018-05-03T07:37:10.421Z,11.17
2018-05-03T07:39:38.824Z,8.05
2018-05-03T07:42:07.926Z,9.07
2018-05-03T07:44:37.045Z,11.60
2018-05-03T07:47:06.824Z,9.57
2018-05-03T07:49:35.956Z,7.07
2018-05-03T07:52:04.404Z,11.63
2018-05-03T07:54:32.833Z,8.17
2018-05-03T07:57:01.184Z,5.67
2018-05-03T07:59:29.515Z,9.03
2018-05-03T08:01:57.892Z,7.43
2018-05-03T08:04:26.149Z,10.03
2018-05-03T08:06:55.116Z,12.33
2018-05-03T08:09:23.599Z,9.83
2018-05-03T08:11:51.892Z,8.40
2018-05-03T08:14:20.242Z,10.03
2018-05-03T08:16:49.575Z,8.63
2018-05-03T08:19:18.041Z,8.53
2018-05-03T08:21:46.437Z,6.62
2018-05-03T08:24:14.894Z,7.20
2018-05-03T08:26:43.335Z,9.87
2018-05-03T08:29:12.414Z,9.90
2018-05-03T08:31:40.795Z,14.97
2018-05-03T08:34:09.158Z,10.30
2018-05-03T08:36:37.480Z,9.43
2018-05-03T08:39:06.519Z,10.00
2018-05-03T08:41:34.959Z,8.53
2018-05-03T08:44:03.965Z,9.35
2018-05-03T08:46:32.410Z,8.20
2018-05-03T08:49:01.626Z,10.77
2018-05-03T08:51:30.252Z,11.33
2018-05-03T08:53:58.552Z,11.90
2018-05-03T08:56:26.932Z,12.63
2018-05-03T08:58:55.250Z,7.57
2018-05-03T09:01:23.830Z,7.80
2018-05-03T09:03:52.097Z,8.70
2018-05-03T09:06:20.623Z,9.07
2018-05-03T09:08:48.988Z,7.73
2018-05-03T09:11:17.329Z,6.70
2018-05-03T09:13:46.635Z,8.35
2018-05-03T09:16:15.046Z,5.63
2018-05-03T09:18:43.323Z,7.43
2018-05-03T09:21:11.717Z,7.63
2018-05-03T09:23:40.070Z,8.90
2018-05-03T09:26:08.380Z,28.03
2018-05-03T09:28:37.656Z,7.35
2018-05-03T09:31:06.237Z,8.13
2018-05-03T09:33:34.582Z,7.13
2018-05-03T09:36:02.936Z,8.25
2018-05-03T09:38:31.332Z,8.40
2018-05-03T09:40:59.636Z,10.17
2018-05-03T09:43:29.254Z,8.80
2018-05-03T09:45:57.560Z,8.97
2018-05-03T09:48:25.837Z,12.13
2018-05-03T09:50:54.244Z,8.20
2018-05-03T09:53:23.430Z,6.60
2018-05-03T09:55:51.826Z,9.37
2018-05-03T09:58:20.111Z,6.78
2018-05-03T10:00:48.451Z,8.83
2018-05-03T10:03:17.536Z,9.17
2018-05-03T10:05:46.241Z,10.53
2018-05-03T10:08:15.530Z,11.15
2018-05-03T10:10:43.849Z,8.23
2018-05-03T10:13:13.104Z,6.40
2018-05-03T10:15:41.887Z,7.97
2018-05-03T10:18:11.501Z,7.40
2018-05-03T10:20:39.805Z,8.00
2018-05-03T10:23:08.904Z,6.37
2018-05-03T10:25:38.056Z,6.93
2018-05-03T10:28:06.471Z,5.50
2018-05-03T10:30:35.588Z,5.40
2018-05-03T10:33:03.961Z,5.97
2018-05-03T10:35:32.304Z,6.47
2018-05-03T10:38:00.644Z,7.13
2018-05-03T10:40:28.994Z,6.45
2018-05-03T10:42:57.270Z,6.57
2018-05-03T10:45:25.677Z,6.93
2018-05-03T10:47:55.290Z,7.30
2018-05-03T10:50:23.657Z,7.07
2018-05-03T10:52:51.948Z,8.27
2018-05-03T10:55:20.242Z,6.30
2018-05-03T10:57:48.569Z,7.10
2018-05-03T11:00:16.909Z,4.13
2018-05-03T11:02:45.275Z,9.20
2018-05-03T11:05:15.090Z,8.17
2018-05-03T11:07:43.421Z,6.77
2018-05-03T11:10:11.711Z,9.33
2018-05-03T11:12:40.091Z,5.60
2018-05-03T11:15:08.377Z,7.77
2018-05-03T11:17:36.940Z,11.00
2018-05-03T11:20:05.430Z,11.83
2018-05-03T11:22:33.746Z,10.13
2018-05-03T11:25:02.072Z,7.33
2018-05-03T11:27:30.345Z,5.33
2018-05-03T11:29:58.666Z,11.13
2018-05-03T11:32:27.762Z,5.25
2018-05-03T11:34:56.200Z,8.20
2018-05-03T11:37:24.541Z,6.90
2018-05-03T11:39:53.625Z,6.82
2018-05-03T11:42:21.978Z,8.63
2018-05-03T11:44:50.397Z,7.10
2018-05-03T11:47:18.756Z,10.23
2018-05-03T11:49:47.201Z,6.43
2018-05-03T11:52:15.547Z,14.50
2018-05-03T11:54:43.881Z,7.97
2018-05-03T11:57:12.304Z,6.50
2018-05-03T11:59:40.596Z,4.83
2018-05-03T12:02:08.897Z,6.97
2018-05-03T12:04:37.335Z,7.90
2018-05-03T12:07:05.699Z,9.75
2018-05-03T12:09:34.773Z,6.90
2018-05-03T12:12:03.144Z,7.67
2018-05-03T12:14:31.595Z,7.30
2018-05-03T12:17:01.421Z,7.00
2018-05-03T12:19:29.791Z,9.60
2018-05-03T12:21:58.060Z,5.50
2018-05-03T12:24:26.492Z,8.77
2018-05-03T12:26:54.808Z,5.90
2018-05-03T12:29:23.138Z,6.40
2018-05-03T12:31:51.405Z,8.77
2018-05-03T12:34:19.757Z,6.20
2018-05-03T12:36:48.080Z,7.03
2018-05-03T12:39:17.235Z,7.20
2018-05-03T12:41:45.546Z,7.13
2018-05-03T12:44:14.155Z,10.20
2018-05-03T12:46:43.363Z,11.13
2018-05-03T12:49:11.676Z,6.60
2018-05-03T12:51:40.022Z,8.80
2018-05-03T12:54:08.470Z,6.93
2018-05-03T12:56:37.661Z,8.03
2018-05-03T12:59:05.989Z,4.87
2018-05-03T13:01:34.556Z,7.90
2018-05-03T13:04:02.911Z,6.28
2018-05-03T13:06:32.034Z,9.10
2018-05-03T13:09:00.355Z,8.97
2018-05-03T13:11:29.474Z,4.20
2018-05-03T13:13:57.984Z,6.43
2018-05-03T13:16:26.517Z,7.03
2018-05-03T13:18:55.892Z,5.30
2018-05-03T13:21:24.213Z,6.13
2018-05-03T13:23:53.340Z,6.03
2018-05-03T13:26:21.678Z,7.47
2018-05-03T13:28:49.967Z,6.53
2018-05-03T13:31:19.080Z,6.47
2018-05-03T13:33:47.421Z,8.43
2018-05-03T13:36:16.672Z,8.13
2018-05-03T13:38:45.068Z,7.30
2018-05-03T13:41:13.508Z,8.15
2018-05-03T13:43:41.889Z,6.03
2018-05-03T13:46:10.385Z,9.57
2018-05-03T13:48:38.719Z,6.30
2018-05-03T13:51:07.101Z,4.10
2018-05-03T13:53:35.601Z,10.10
2018-05-03T13:56:04.965Z,4.87
2018-05-03T13:58:33.272Z,7.10
2018-05-03T14:01:02.436Z,6.85
2018-05-03T14:03:30.937Z,6.33
2018-05-03T14:05:59.463Z,5.62
2018-05-03T14:08:27.820Z,7.70
2018-05-03T14:10:56.923Z,5.35
2018-05-03T14:13:25.272Z,12.87
2018-05-03T14:15:53.671Z,6.37
2018-05-03T14:18:22.143Z,5.17
2018-05-03T14:20:51.455Z,9.02
2018-05-03T14:23:20.561Z,6.80
2018-05-03T14:25:48.936Z,5.37
2018-05-03T14:28:17.342Z,5.80
2018-05-03T14:30:45.649Z,8.80
2018-05-03T14:33:14.004Z,7.62
2018-05-03T14:35:42.315Z,4.93
2018-05-03T14:38:11.489Z,6.20
2018-05-03T14:40:39.846Z,7.43
2018-05-03T14:43:08.199Z,5.60
2018-05-03T14:45:36.666Z,4.87
2018-05-03T14:48:07.046Z,6.03
2018-05-03T14:50:35.477Z,6.27
2018-05-03T14:53:04.840Z,7.07
2018-05-03T14:55:33.203Z,5.27
2018-05-03T14:58:02.288Z,6.67
2018-05-03T15:00:30.583Z,4.82
2018-05-03T15:02:58.896Z,5.77
2018-05-03T15:05:27.352Z,6.67
2018-05-03T15:07:55.876Z,7.20
2018-05-03T15:10:24.421Z,7.67
2018-05-03T15:12:52.936Z,5.30
2018-05-03T15:15:21.384Z,6.30
2018-05-03T15:17:49.693Z,5.03
2018-05-03T15:20:18.008Z,8.10
2018-05-03T15:22:46.611Z,5.80
2018-05-03T15:25:15.123Z,4.30
2018-05-03T15:27:44.350Z,4.23
2018-05-03T15:30:12.662Z,5.78
2018-05-03T15:32:41.207Z,7.03
2018-05-03T15:35:09.731Z,8.40
2018-05-03T15:37:38.147Z,8.30
2018-05-03T15:40:07.253Z,9.63
2018-05-03T15:42:35.717Z,13.47
2018-05-03T15:45:04.842Z,9.07
2018-05-03T15:47:33.272Z,9.60
2018-05-03T15:50:01.781Z,6.50
2018-05-03T15:52:30.162Z,6.87
2018-05-03T15:54:58.736Z,5.47
2018-05-03T15:57:28.022Z,5.50
2018-05-03T15:59:57.136Z,4.87
2018-05-03T16:02:26.322Z,6.53
2018-05-03T16:04:54.681Z,7.20
2018-05-03T16:07:23.067Z,6.37
2018-05-03T16:09:51.401Z,6.20
2018-05-03T16:12:19.878Z,7.07
2018-05-03T16:14:48.299Z,10.73
2018-05-03T16:17:16.668Z,6.90
2018-05-03T16:19:46.433Z,4.93
2018-05-03T16:22:14.826Z,5.70
2018-05-03T16:24:43.389Z,5.40
2018-05-03T16:27:11.706Z,6.90
2018-05-03T16:29:40.064Z,5.23
2018-05-03T16:32:10.427Z,6.53
2018-05-03T16:34:40.242Z,5.53
2018-05-03T16:37:10.535Z,7.03
2018-05-03T16:39:39.607Z,4.35
2018-05-03T16:42:08.037Z,5.83
2018-05-03T16:44:36.358Z,7.70
2018-05-03T16:47:04.707Z,5.43
2018-05-03T16:49:33.068Z,3.30
2018-05-03T16:52:01.434Z,4.60
2018-05-03T16:54:29.776Z,3.92
2018-05-03T16:56:58.170Z,6.50
2018-05-03T16:59:26.676Z,18.83
2018-05-03T17:01:55.123Z,12.73
2018-05-03T17:04:23.562Z,6.10
2018-05-03T17:06:52.657Z,7.03
2018-05-03T17:09:21.096Z,7.55
2018-05-03T17:11:49.507Z,9.70
2018-05-03T17:14:18.124Z,7.80
2018-05-03T17:16:46.465Z,6.80
2018-05-03T17:19:15.722Z,6.67
2018-05-03T17:21:44.458Z,8.13
2018-05-03T17:24:13.060Z,6.30
2018-05-03T17:26:42.397Z,5.60
2018-05-03T17:29:10.753Z,7.40
2018-05-03T17:31:39.081Z,6.47
2018-05-03T17:34:07.533Z,7.43
2018-05-03T17:36:35.947Z,7.43
2018-05-03T17:39:04.396Z,9.40
2018-05-03T17:41:32.793Z,7.30
2018-05-03T17:44:01.397Z,7.27
2018-05-03T17:46:29.831Z,12.00
2018-05-03T17:48:58.382Z,5.53
2018-05-03T17:51:27.748Z,7.30
2018-05-03T17:53:56.096Z,6.13
2018-05-03T17:56:24.423Z,6.03
2018-05-03T17:58:53.048Z,9.07
2018-05-03T18:01:21.638Z,7.13
2018-05-03T18:03:50.009Z,4.57
2018-05-03T18:06:18.392Z,5.00
2018-05-03T18:08:46.795Z,4.93
2018-05-03T18:11:15.298Z,5.27
2018-05-03T18:13:43.743Z,5.30
2018-05-03T18:16:12.309Z,5.90
2018-05-03T18:18:40.738Z,6.17
2018-05-03T18:21:09.141Z,6.07
2018-05-03T18:23:37.606Z,6.60
2018-05-03T18:26:06.831Z,6.37
2018-05-03T18:28:35.241Z,18.03
2018-05-03T18:31:03.591Z,26.67
2018-05-03T18:33:31.988Z,12.53
2018-05-03T18:36:00.433Z,10.57
2018-05-03T18:38:29.670Z,6.47
2018-05-03T18:40:58.014Z,7.50
2018-05-03T18:43:27.103Z,6.70
2018-05-03T18:45:56.297Z,9.57
2018-05-03T18:48:25.019Z,7.07
2018-05-03T18:50:53.466Z,5.27
2018-05-03T18:53:22.732Z,13.60
2018-05-03T18:55:51.061Z,7.90
2018-05-03T18:58:19.556Z,7.40
2018-05-03T19:00:48.640Z,8.87
2018-05-03T19:03:17.114Z,9.00
2018-05-03T19:05:46.325Z,5.37
2018-05-03T19:08:14.783Z,5.40
2018-05-03T19:10:45.149Z,7.90
2018-05-03T19:13:18.477Z,7.57
2018-05-03T19:15:46.909Z,7.57
2018-05-03T19:18:15.599Z,4.77
2018-05-03T19:20:44.180Z,8.63
2018-05-03T19:23:12.517Z,8.07
2018-05-03T19:25:40.818Z,5.80
2018-05-03T19:28:09.959Z,6.53
2018-05-03T19:30:38.306Z,6.65
2018-05-03T19:33:06.671Z,7.20
2018-05-03T19:35:35.240Z,5.97
2018-05-03T19:38:03.563Z,5.43
2018-05-03T19:40:31.958Z,5.87
2018-05-03T19:43:00.416Z,9.10
2018-05-03T19:45:30.342Z,5.40
2018-05-03T19:47:58.687Z,6.57
2018-05-03T19:50:27.127Z,6.73
2018-05-03T19:52:56.220Z,5.50
2018-05-03T19:55:24.671Z,6.37
2018-05-03T19:57:53.020Z,3.85
2018-05-03T20:00:21.348Z,4.03
2018-05-03T20:02:49.802Z,6.47
2018-05-03T20:05:18.258Z,8.35
2018-05-03T20:07:46.689Z,5.20
2018-05-03T20:10:15.013Z,5.65
2018-05-03T20:12:43.337Z,7.97
2018-05-03T20:15:13.270Z,5.95
2018-05-03T20:17:41.657Z,4.60
2018-05-03T20:20:10.201Z,5.47
2018-05-03T20:22:38.612Z,4.90
2018-05-03T20:25:06.964Z,7.83
2018-05-03T20:27:36.237Z,8.13
2018-05-03T20:30:04.582Z,3.40
2018-05-03T20:32:33.768Z,8.00
2018-05-03T20:35:02.308Z,7.00
2018-05-03T20:37:30.681Z,6.78
2018-05-03T20:39:59.342Z,9.30
2018-05-03T20:42:27.823Z,6.05
2018-05-03T20:44:56.347Z,8.50
2018-05-03T20:47:25.830Z,6.45
2018-05-03T20:49:54.169Z,7.03
2018-05-03T20:52:23.292Z,7.45
2018-05-03T20:54:51.708Z,7.73
2018-05-03T20:57:20.223Z,6.57
2018-05-03T20:59:48.757Z,8.10
2018-05-03T21:02:17.200Z,5.40
2018-05-03T21:04:46.324Z,9.07
2018-05-03T21:07:14.682Z,5.65
2018-05-03T21:09:43.229Z,11.57
2018-05-03T21:12:12.452Z,5.63
2018-05-03T21:14:41.530Z,7.73
2018-05-03T21:17:10.860Z,7.37
2018-05-03T21:19:39.275Z,8.93
2018-05-03T21:22:07.589Z,5.43
2018-05-03T21:24:35.984Z,5.33
2018-05-03T21:27:05.214Z,6.07
2018-05-03T21:29:33.617Z,7.30
2018-05-03T21:32:02.117Z,3.50
2018-05-03T21:34:30.524Z,5.23
2018-05-03T21:36:59.013Z,7.13
2018-05-03T21:39:27.422Z,7.47
2018-05-03T21:41:55.818Z,5.73
2018-05-03T21:44:24.583Z,4.07
2018-05-03T21:46:53.134Z,4.53
2018-05-03T21:49:21.522Z,7.13
2018-05-03T21:51:49.837Z,6.07
2018-05-03T21:54:18.275Z,6.63
2018-05-03T21:56:46.593Z,7.20
2018-05-03T21:59:16.033Z,7.23
2018-05-03T22:01:45.322Z,5.77
2018-05-03T22:04:13.651Z,4.40
2018-05-03T22:06:41.959Z,7.10
2018-05-03T22:09:10.273Z,7.63
2018-05-03T22:11:39.394Z,9.05
2018-05-03T22:14:07.690Z,7.18
2018-05-03T22:16:35.984Z,6.47
2018-05-03T22:19:04.298Z,10.57
2018-05-03T22:21:34.592Z,10.20
2018-05-03T22:24:02.938Z,7.77
2018-05-03T22:26:31.298Z,6.77
2018-05-03T22:28:59.809Z,7.57
2018-05-03T22:31:28.120Z,7.47
2018-05-03T22:33:56.448Z,9.50
2018-05-03T22:36:24.757Z,6.90
2018-05-03T22:38:53.093Z,7.10
2018-05-03T22:41:21.392Z,10.25
2018-05-03T22:43:49.719Z,6.90
2018-05-03T22:46:18.939Z,7.80
2018-05-03T22:48:47.855Z,6.67
2018-05-03T22:51:16.152Z,7.57
2018-05-03T22:53:44.477Z,8.43
2018-05-03T22:56:12.863Z,6.35
2018-05-03T22:58:41.445Z,5.17
2018-05-03T23:01:10.158Z,7.82
2018-05-03T23:03:38.445Z,6.07
2018-05-03T23:06:06.728Z,8.00
2018-05-03T23:08:35.982Z,8.55
2018-05-03T23:11:05.467Z,8.48
2018-05-03T23:13:33.829Z,6.80
2018-05-03T23:16:02.201Z,6.87
2018-05-03T23:18:30.787Z,7.12
2018-05-03T23:20:59.059Z,5.40
2018-05-03T23:23:27.503Z,5.37
2018-05-03T23:25:56.064Z,8.67
2018-05-03T23:28:24.469Z,5.43
2018-05-03T23:30:52.778Z,6.20
2018-05-03T23:33:21.107Z,4.40
2018-05-03T23:35:49.419Z,10.25
2018-05-03T23:38:17.784Z,8.97
2018-05-03T23:40:46.108Z,6.80
2018-05-03T23:43:14.393Z,6.27
2018-05-03T23:45:43.558Z,8.00
2018-05-03T23:48:11.868Z,3.07
2018-05-03T23:50:41.112Z,8.20
2018-05-03T23:53:09.413Z,7.03
2018-05-03T23:55:37.822Z,5.53
2018-05-03T23:58:06.479Z,5.40
